sensor_id;sensor_type;location;lat;lon;timestamp;P1;durP1;ratioP1;P2;durP2;ratioP2
29452;SDS011;16424;50.956;5.320;2023-04-25T00:00:07;16.33;;;4.22;;
29452;SDS011;16424;50.956;5.320;2023-04-25T00:02:33;15.32;;;4.60;;
29452;SDS011;16424;50.956;5.320;2023-04-25T00:05:00;11.98;;;4.20;;
29452;SDS011;16424;50.956;5.320;2023-04-25T00:07:26;21.00;;;3.45;;
29452;SDS011;16424;50.956;5.320;2023-04-25T00:09:52;13.75;;;3.35;;
29452;SDS011;16424;50.956;5.320;2023-04-25T00:12:18;20.08;;;4.00;;
29452;SDS011;16424;50.956;5.320;2023-04-25T00:14:43;15.10;;;3.60;;
29452;SDS011;16424;50.956;5.320;2023-04-25T00:17:10;12.98;;;3.13;;
29452;SDS011;16424;50.956;5.320;2023-04-25T00:19:36;15.65;;;4.15;;
29452;SDS011;16424;50.956;5.320;2023-04-25T00:22:02;26.15;;;4.43;;
29452;SDS011;16424;50.956;5.320;2023-04-25T00:24:28;10.00;;;4.13;;
29452;SDS011;16424;50.956;5.320;2023-04-25T00:26:54;14.95;;;3.92;;
29452;SDS011;16424;50.956;5.320;2023-04-25T00:29:20;9.63;;;3.35;;
29452;SDS011;16424;50.956;5.320;2023-04-25T00:31:46;15.93;;;3.75;;
29452;SDS011;16424;50.956;5.320;2023-04-25T00:34:11;11.57;;;4.07;;
29452;SDS011;16424;50.956;5.320;2023-04-25T00:36:37;16.50;;;3.50;;
29452;SDS011;16424;50.956;5.320;2023-04-25T00:39:03;16.33;;;3.30;;
29452;SDS011;16424;50.956;5.320;2023-04-25T00:41:29;15.18;;;4.50;;
29452;SDS011;16424;50.956;5.320;2023-04-25T00:43:55;10.18;;;3.75;;
29452;SDS011;16424;50.956;5.320;2023-04-25T00:46:21;10.85;;;3.55;;
29452;SDS011;16424;50.956;5.320;2023-04-25T00:48:47;16.33;;;3.80;;
29452;SDS011;16424;50.956;5.320;2023-04-25T00:51:14;22.67;;;4.90;;
29452;SDS011;16424;50.956;5.320;2023-04-25T00:53:44;21.67;;;3.50;;
29452;SDS011;16424;50.956;5.320;2023-04-25T00:56:10;15.48;;;3.70;;
29452;SDS011;16424;50.956;5.320;2023-04-25T00:58:36;14.95;;;4.00;;
29452;SDS011;16424;50.956;5.320;2023-04-25T01:01:03;13.82;;;4.00;;
29452;SDS011;16424;50.956;5.320;2023-04-25T01:03:29;9.98;;;3.58;;
29452;SDS011;16424;50.956;5.320;2023-04-25T01:05:57;13.75;;;3.80;;
29452;SDS011;16424;50.956;5.320;2023-04-25T01:08:23;13.93;;;3.80;;
29452;SDS011;16424;50.956;5.320;2023-04-25T01:10:50;14.23;;;3.22;;
29452;SDS011;16424;50.956;5.320;2023-04-25T01:13:16;11.48;;;3.72;;
29452;SDS011;16424;50.956;5.320;2023-04-25T01:15:42;15.90;;;3.72;;
29452;SDS011;16424;50.956;5.320;2023-04-25T01:18:07;12.77;;;3.33;;
29452;SDS011;16424;50.956;5.320;2023-04-25T01:20:33;13.85;;;5.05;;
29452;SDS011;16424;50.956;5.320;2023-04-25T01:22:59;12.52;;;3.72;;
29452;SDS011;16424;50.956;5.320;2023-04-25T01:25:25;8.65;;;3.55;;
29452;SDS011;16424;50.956;5.320;2023-04-25T01:27:51;14.88;;;4.10;;
29452;SDS011;16424;50.956;5.320;2023-04-25T01:30:17;14.75;;;3.75;;
29452;SDS011;16424;50.956;5.320;2023-04-25T01:32:43;22.30;;;4.55;;
29452;SDS011;16424;50.956;5.320;2023-04-25T01:35:10;14.70;;;3.92;;
29452;SDS011;16424;50.956;5.320;2023-04-25T01:37:40;14.95;;;4.05;;
29452;SDS011;16424;50.956;5.320;2023-04-25T01:40:08;11.38;;;3.85;;
29452;SDS011;16424;50.956;5.320;2023-04-25T01:42:35;13.30;;;4.00;;
29452;SDS011;16424;50.956;5.320;2023-04-25T01:45:02;9.55;;;3.17;;
29452;SDS011;16424;50.956;5.320;2023-04-25T01:47:28;13.90;;;3.38;;
29452;SDS011;16424;50.956;5.320;2023-04-25T01:49:54;13.95;;;3.40;;
29452;SDS011;16424;50.956;5.320;2023-04-25T01:52:20;21.33;;;3.67;;
29452;SDS011;16424;50.956;5.320;2023-04-25T01:54:45;17.40;;;4.00;;
29452;SDS011;16424;50.956;5.320;2023-04-25T01:57:12;19.75;;;4.07;;
29452;SDS011;16424;50.956;5.320;2023-04-25T01:59:37;11.15;;;4.03;;
29452;SDS011;16424;50.956;5.320;2023-04-25T02:02:03;13.70;;;3.88;;
29452;SDS011;16424;50.956;5.320;2023-04-25T02:04:29;13.05;;;3.83;;
29452;SDS011;16424;50.956;5.320;2023-04-25T02:06:55;12.13;;;3.63;;
29452;SDS011;16424;50.956;5.320;2023-04-25T02:09:21;17.45;;;4.03;;
29452;SDS011;16424;50.956;5.320;2023-04-25T02:11:47;27.33;;;4.32;;
29452;SDS011;16424;50.956;5.320;2023-04-25T02:14:13;13.80;;;3.92;;
29452;SDS011;16424;50.956;5.320;2023-04-25T02:16:39;10.60;;;3.40;;
29452;SDS011;16424;50.956;5.320;2023-04-25T02:19:05;10.63;;;4.05;;
29452;SDS011;16424;50.956;5.320;2023-04-25T02:21:31;13.50;;;3.60;;
29452;SDS011;16424;50.956;5.320;2023-04-25T02:23:57;17.98;;;4.38;;
29452;SDS011;16424;50.956;5.320;2023-04-25T02:26:23;16.30;;;4.43;;
29452;SDS011;16424;50.956;5.320;2023-04-25T02:28:49;21.13;;;4.03;;
29452;SDS011;16424;50.956;5.320;2023-04-25T02:31:15;13.48;;;3.85;;
29452;SDS011;16424;50.956;5.320;2023-04-25T02:33:41;11.13;;;3.35;;
29452;SDS011;16424;50.956;5.320;2023-04-25T02:36:07;11.52;;;3.53;;
29452;SDS011;16424;50.956;5.320;2023-04-25T02:38:33;11.18;;;3.42;;
29452;SDS011;16424;50.956;5.320;2023-04-25T02:40:59;11.43;;;3.83;;
29452;SDS011;16424;50.956;5.320;2023-04-25T02:43:25;13.05;;;4.30;;
29452;SDS011;16424;50.956;5.320;2023-04-25T02:45:51;7.63;;;3.75;;
29452;SDS011;16424;50.956;5.320;2023-04-25T02:48:16;17.30;;;3.55;;
29452;SDS011;16424;50.956;5.320;2023-04-25T02:50:42;17.58;;;3.80;;
29452;SDS011;16424;50.956;5.320;2023-04-25T02:53:08;19.33;;;4.25;;
29452;SDS011;16424;50.956;5.320;2023-04-25T02:55:33;14.38;;;4.20;;
29452;SDS011;16424;50.956;5.320;2023-04-25T02:57:59;14.80;;;3.33;;
29452;SDS011;16424;50.956;5.320;2023-04-25T03:00:25;18.73;;;4.38;;
29452;SDS011;16424;50.956;5.320;2023-04-25T03:02:50;13.07;;;3.50;;
29452;SDS011;16424;50.956;5.320;2023-04-25T03:05:16;15.90;;;4.35;;
29452;SDS011;16424;50.956;5.320;2023-04-25T03:07:42;6.05;;;3.15;;
29452;SDS011;16424;50.956;5.320;2023-04-25T03:10:09;15.23;;;4.25;;
29452;SDS011;16424;50.956;5.320;2023-04-25T03:12:35;16.27;;;4.07;;
29452;SDS011;16424;50.956;5.320;2023-04-25T03:15:01;10.98;;;3.10;;
29452;SDS011;16424;50.956;5.320;2023-04-25T03:17:27;11.27;;;3.58;;
29452;SDS011;16424;50.956;5.320;2023-04-25T03:19:53;16.52;;;3.95;;
29452;SDS011;16424;50.956;5.320;2023-04-25T03:22:19;17.70;;;3.75;;
29452;SDS011;16424;50.956;5.320;2023-04-25T03:24:44;14.00;;;3.72;;
29452;SDS011;16424;50.956;5.320;2023-04-25T03:27:10;11.68;;;3.92;;
29452;SDS011;16424;50.956;5.320;2023-04-25T03:29:36;17.27;;;3.47;;
29452;SDS011;16424;50.956;5.320;2023-04-25T03:32:01;15.57;;;4.07;;
29452;SDS011;16424;50.956;5.320;2023-04-25T03:34:27;14.25;;;3.72;;
29452;SDS011;16424;50.956;5.320;2023-04-25T03:36:53;20.98;;;4.25;;
29452;SDS011;16424;50.956;5.320;2023-04-25T03:39:19;16.23;;;4.05;;
29452;SDS011;16424;50.956;5.320;2023-04-25T03:41:44;13.95;;;3.97;;
29452;SDS011;16424;50.956;5.320;2023-04-25T03:44:10;11.77;;;4.38;;
29452;SDS011;16424;50.956;5.320;2023-04-25T03:46:36;11.50;;;3.85;;
29452;SDS011;16424;50.956;5.320;2023-04-25T03:49:01;15.90;;;4.15;;
29452;SDS011;16424;50.956;5.320;2023-04-25T03:51:27;18.17;;;4.28;;
29452;SDS011;16424;50.956;5.320;2023-04-25T03:53:53;12.75;;;3.90;;
29452;SDS011;16424;50.956;5.320;2023-04-25T03:56:18;22.25;;;4.00;;
29452;SDS011;16424;50.956;5.320;2023-04-25T03:58:45;17.65;;;4.18;;
29452;SDS011;16424;50.956;5.320;2023-04-25T04:01:10;18.50;;;4.63;;
29452;SDS011;16424;50.956;5.320;2023-04-25T04:03:36;18.98;;;4.20;;
29452;SDS011;16424;50.956;5.320;2023-04-25T04:06:02;21.30;;;4.72;;
29452;SDS011;16424;50.956;5.320;2023-04-25T04:08:29;22.55;;;4.45;;
29452;SDS011;16424;50.956;5.320;2023-04-25T04:10:55;14.63;;;4.30;;
29452;SDS011;16424;50.956;5.320;2023-04-25T04:13:22;20.63;;;5.30;;
29452;SDS011;16424;50.956;5.320;2023-04-25T04:15:47;13.18;;;3.80;;
29452;SDS011;16424;50.956;5.320;2023-04-25T04:18:13;22.13;;;4.68;;
29452;SDS011;16424;50.956;5.320;2023-04-25T04:20:39;19.30;;;4.15;;
29452;SDS011;16424;50.956;5.320;2023-04-25T04:23:04;9.02;;;3.53;;
29452;SDS011;16424;50.956;5.320;2023-04-25T04:25:30;16.42;;;3.63;;
29452;SDS011;16424;50.956;5.320;2023-04-25T04:27:56;11.68;;;3.20;;
29452;SDS011;16424;50.956;5.320;2023-04-25T04:30:22;15.70;;;3.53;;
29452;SDS011;16424;50.956;5.320;2023-04-25T04:32:54;11.40;;;2.90;;
29452;SDS011;16424;50.956;5.320;2023-04-25T04:35:20;14.48;;;2.88;;
29452;SDS011;16424;50.956;5.320;2023-04-25T04:37:47;13.15;;;3.05;;
29452;SDS011;16424;50.956;5.320;2023-04-25T04:40:13;8.75;;;2.65;;
29452;SDS011;16424;50.956;5.320;2023-04-25T04:42:40;7.57;;;2.92;;
29452;SDS011;16424;50.956;5.320;2023-04-25T04:45:06;10.15;;;3.55;;
29452;SDS011;16424;50.956;5.320;2023-04-25T04:47:33;12.48;;;3.35;;
29452;SDS011;16424;50.956;5.320;2023-04-25T04:49:59;13.45;;;2.90;;
29452;SDS011;16424;50.956;5.320;2023-04-25T04:52:24;12.18;;;3.55;;
29452;SDS011;16424;50.956;5.320;2023-04-25T04:54:50;13.75;;;3.17;;
29452;SDS011;16424;50.956;5.320;2023-04-25T04:57:16;9.93;;;2.88;;
29452;SDS011;16424;50.956;5.320;2023-04-25T04:59:41;16.13;;;3.92;;
29452;SDS011;16424;50.956;5.320;2023-04-25T05:02:07;12.45;;;2.70;;
29452;SDS011;16424;50.956;5.320;2023-04-25T05:04:33;12.38;;;2.85;;
29452;SDS011;16424;50.956;5.320;2023-04-25T05:06:58;9.48;;;2.25;;
29452;SDS011;16424;50.956;5.320;2023-04-25T05:09:24;6.63;;;2.30;;
29452;SDS011;16424;50.956;5.320;2023-04-25T05:11:51;16.48;;;3.08;;
29452;SDS011;16424;50.956;5.320;2023-04-25T05:14:16;8.32;;;2.70;;
29452;SDS011;16424;50.956;5.320;2023-04-25T05:16:42;9.40;;;2.90;;
29452;SDS011;16424;50.956;5.320;2023-04-25T05:19:08;16.33;;;3.10;;
29452;SDS011;16424;50.956;5.320;2023-04-25T05:21:34;8.18;;;2.35;;
29452;SDS011;16424;50.956;5.320;2023-04-25T05:24:00;7.55;;;2.58;;
29452;SDS011;16424;50.956;5.320;2023-04-25T05:26:26;12.80;;;2.60;;
29452;SDS011;16424;50.956;5.320;2023-04-25T05:28:56;7.03;;;2.28;;
29452;SDS011;16424;50.956;5.320;2023-04-25T05:31:22;13.25;;;3.15;;
29452;SDS011;16424;50.956;5.320;2023-04-25T05:33:47;10.23;;;3.47;;
29452;SDS011;16424;50.956;5.320;2023-04-25T05:36:13;7.97;;;2.80;;
29452;SDS011;16424;50.956;5.320;2023-04-25T05:38:39;8.13;;;2.42;;
29452;SDS011;16424;50.956;5.320;2023-04-25T05:41:04;12.13;;;2.70;;
29452;SDS011;16424;50.956;5.320;2023-04-25T05:43:30;11.27;;;3.08;;
29452;SDS011;16424;50.956;5.320;2023-04-25T05:45:56;16.60;;;2.72;;
29452;SDS011;16424;50.956;5.320;2023-04-25T05:48:21;14.70;;;3.55;;
29452;SDS011;16424;50.956;5.320;2023-04-25T05:50:47;10.88;;;3.08;;
29452;SDS011;16424;50.956;5.320;2023-04-25T05:53:13;7.30;;;2.50;;
29452;SDS011;16424;50.956;5.320;2023-04-25T05:55:38;10.35;;;2.60;;
29452;SDS011;16424;50.956;5.320;2023-04-25T05:58:05;11.90;;;2.67;;
29452;SDS011;16424;50.956;5.320;2023-04-25T06:00:31;10.35;;;3.13;;
29452;SDS011;16424;50.956;5.320;2023-04-25T06:02:57;6.78;;;2.78;;
29452;SDS011;16424;50.956;5.320;2023-04-25T06:05:23;20.23;;;3.30;;
29452;SDS011;16424;50.956;5.320;2023-04-25T06:07:48;6.38;;;2.90;;
29452;SDS011;16424;50.956;5.320;2023-04-25T06:10:14;10.63;;;2.78;;
29452;SDS011;16424;50.956;5.320;2023-04-25T06:12:40;8.80;;;2.65;;
29452;SDS011;16424;50.956;5.320;2023-04-25T06:15:06;8.82;;;3.70;;
29452;SDS011;16424;50.956;5.320;2023-04-25T06:17:32;12.52;;;4.57;;
29452;SDS011;16424;50.956;5.320;2023-04-25T06:19:58;21.80;;;3.50;;
29452;SDS011;16424;50.956;5.320;2023-04-25T06:22:24;14.88;;;3.20;;
29452;SDS011;16424;50.956;5.320;2023-04-25T06:24:49;23.20;;;3.80;;
29452;SDS011;16424;50.956;5.320;2023-04-25T06:27:15;11.82;;;3.00;;
29452;SDS011;16424;50.956;5.320;2023-04-25T06:29:41;11.15;;;3.97;;
29452;SDS011;16424;50.956;5.320;2023-04-25T06:32:06;14.63;;;3.80;;
29452;SDS011;16424;50.956;5.320;2023-04-25T06:34:32;16.48;;;3.85;;
29452;SDS011;16424;50.956;5.320;2023-04-25T06:36:57;15.27;;;3.85;;
29452;SDS011;16424;50.956;5.320;2023-04-25T06:39:23;9.93;;;4.15;;
29452;SDS011;16424;50.956;5.320;2023-04-25T06:41:50;16.63;;;4.10;;
29452;SDS011;16424;50.956;5.320;2023-04-25T06:44:16;14.18;;;4.05;;
29452;SDS011;16424;50.956;5.320;2023-04-25T06:46:41;11.65;;;4.50;;
29452;SDS011;16424;50.956;5.320;2023-04-25T06:49:07;14.20;;;4.18;;
29452;SDS011;16424;50.956;5.320;2023-04-25T06:51:32;9.90;;;4.15;;
29452;SDS011;16424;50.956;5.320;2023-04-25T06:53:58;8.55;;;3.33;;
29452;SDS011;16424;50.956;5.320;2023-04-25T06:56:24;9.93;;;3.75;;
29452;SDS011;16424;50.956;5.320;2023-04-25T06:58:50;20.20;;;4.45;;
29452;SDS011;16424;50.956;5.320;2023-04-25T07:01:16;17.90;;;4.80;;
29452;SDS011;16424;50.956;5.320;2023-04-25T07:03:41;16.50;;;4.47;;
29452;SDS011;16424;50.956;5.320;2023-04-25T07:06:07;15.13;;;4.50;;
29452;SDS011;16424;50.956;5.320;2023-04-25T07:08:33;18.80;;;4.43;;
29452;SDS011;16424;50.956;5.320;2023-04-25T07:10:58;17.73;;;4.45;;
29452;SDS011;16424;50.956;5.320;2023-04-25T07:13:24;16.42;;;4.45;;
29452;SDS011;16424;50.956;5.320;2023-04-25T07:15:50;25.05;;;5.07;;
29452;SDS011;16424;50.956;5.320;2023-04-25T07:18:15;9.50;;;3.80;;
29452;SDS011;16424;50.956;5.320;2023-04-25T07:20:41;14.52;;;4.38;;
29452;SDS011;16424;50.956;5.320;2023-04-25T07:23:07;14.55;;;4.03;;
29452;SDS011;16424;50.956;5.320;2023-04-25T07:25:32;18.15;;;4.57;;
29452;SDS011;16424;50.956;5.320;2023-04-25T07:27:58;16.77;;;4.07;;
29452;SDS011;16424;50.956;5.320;2023-04-25T07:30:23;16.10;;;4.28;;
29452;SDS011;16424;50.956;5.320;2023-04-25T07:32:50;9.07;;;3.50;;
29452;SDS011;16424;50.956;5.320;2023-04-25T07:35:16;8.50;;;3.13;;
29452;SDS011;16424;50.956;5.320;2023-04-25T07:37:42;11.38;;;3.15;;
29452;SDS011;16424;50.956;5.320;2023-04-25T07:40:08;13.80;;;3.05;;
29452;SDS011;16424;50.956;5.320;2023-04-25T07:42:34;13.40;;;3.35;;
29452;SDS011;16424;50.956;5.320;2023-04-25T07:45:00;10.15;;;2.75;;
29452;SDS011;16424;50.956;5.320;2023-04-25T07:47:26;13.15;;;2.58;;
29452;SDS011;16424;50.956;5.320;2023-04-25T07:49:51;10.48;;;2.38;;
29452;SDS011;16424;50.956;5.320;2023-04-25T07:52:17;13.82;;;2.25;;
29452;SDS011;16424;50.956;5.320;2023-04-25T07:54:43;9.60;;;2.28;;
29452;SDS011;16424;50.956;5.320;2023-04-25T07:57:08;8.30;;;2.20;;
29452;SDS011;16424;50.956;5.320;2023-04-25T07:59:34;8.95;;;1.98;;
29452;SDS011;16424;50.956;5.320;2023-04-25T08:02:00;7.28;;;1.90;;
29452;SDS011;16424;50.956;5.320;2023-04-25T08:04:27;10.30;;;2.00;;
29452;SDS011;16424;50.956;5.320;2023-04-25T08:06:53;12.93;;;2.05;;
29452;SDS011;16424;50.956;5.320;2023-04-25T08:09:19;7.40;;;1.92;;
29452;SDS011;16424;50.956;5.320;2023-04-25T08:11:45;6.75;;;1.38;;
29452;SDS011;16424;50.956;5.320;2023-04-25T08:14:12;11.57;;;2.72;;
29452;SDS011;16424;50.956;5.320;2023-04-25T08:16:38;10.32;;;2.60;;
29452;SDS011;16424;50.956;5.320;2023-04-25T08:19:04;4.95;;;1.58;;
29452;SDS011;16424;50.956;5.320;2023-04-25T08:21:30;12.88;;;1.65;;
29452;SDS011;16424;50.956;5.320;2023-04-25T08:23:56;11.40;;;2.83;;
29452;SDS011;16424;50.956;5.320;2023-04-25T08:26:23;6.80;;;1.52;;
29452;SDS011;16424;50.956;5.320;2023-04-25T08:28:49;8.32;;;2.13;;
29452;SDS011;16424;50.956;5.320;2023-04-25T08:31:15;8.07;;;1.88;;
29452;SDS011;16424;50.956;5.320;2023-04-25T08:33:41;9.15;;;1.77;;
29452;SDS011;16424;50.956;5.320;2023-04-25T08:36:07;5.90;;;1.92;;
29452;SDS011;16424;50.956;5.320;2023-04-25T08:38:33;4.80;;;2.22;;
29452;SDS011;16424;50.956;5.320;2023-04-25T08:40:59;5.78;;;1.80;;
29452;SDS011;16424;50.956;5.320;2023-04-25T08:43:29;8.43;;;2.17;;
29452;SDS011;16424;50.956;5.320;2023-04-25T08:45:57;9.07;;;2.03;;
29452;SDS011;16424;50.956;5.320;2023-04-25T08:48:25;8.85;;;1.90;;
29452;SDS011;16424;50.956;5.320;2023-04-25T08:50:54;4.13;;;1.75;;
29452;SDS011;16424;50.956;5.320;2023-04-25T08:53:27;6.45;;;2.38;;
29452;SDS011;16424;50.956;5.320;2023-04-25T08:55:55;9.57;;;3.40;;
29452;SDS011;16424;50.956;5.320;2023-04-25T08:58:22;8.05;;;3.10;;
29452;SDS011;16424;50.956;5.320;2023-04-25T09:00:49;10.63;;;4.28;;
29452;SDS011;16424;50.956;5.320;2023-04-25T09:03:16;10.85;;;4.28;;
29452;SDS011;16424;50.956;5.320;2023-04-25T09:05:42;11.10;;;4.50;;
29452;SDS011;16424;50.956;5.320;2023-04-25T09:08:08;8.85;;;3.47;;
29452;SDS011;16424;50.956;5.320;2023-04-25T09:10:34;11.05;;;3.10;;
29452;SDS011;16424;50.956;5.320;2023-04-25T09:13:10;11.00;;;3.42;;
29452;SDS011;16424;50.956;5.320;2023-04-25T09:15:47;15.57;;;3.65;;
29452;SDS011;16424;50.956;5.320;2023-04-25T09:18:23;13.90;;;3.90;;
29452;SDS011;16424;50.956;5.320;2023-04-25T09:20:53;10.60;;;3.08;;
29452;SDS011;16424;50.956;5.320;2023-04-25T09:23:20;6.35;;;3.00;;
29452;SDS011;16424;50.956;5.320;2023-04-25T09:25:47;10.80;;;2.58;;
29452;SDS011;16424;50.956;5.320;2023-04-25T09:28:14;8.77;;;2.60;;
29452;SDS011;16424;50.956;5.320;2023-04-25T09:30:41;9.52;;;2.33;;
29452;SDS011;16424;50.956;5.320;2023-04-25T09:33:09;7.70;;;1.70;;
29452;SDS011;16424;50.956;5.320;2023-04-25T09:35:37;5.20;;;1.60;;
29452;SDS011;16424;50.956;5.320;2023-04-25T09:38:08;8.02;;;1.55;;
29452;SDS011;16424;50.956;5.320;2023-04-25T09:40:38;6.68;;;1.67;;
29452;SDS011;16424;50.956;5.320;2023-04-25T09:43:08;6.03;;;1.70;;
29452;SDS011;16424;50.956;5.320;2023-04-25T09:45:40;12.23;;;2.22;;
29452;SDS011;16424;50.956;5.320;2023-04-25T09:48:10;7.53;;;2.17;;
29452;SDS011;16424;50.956;5.320;2023-04-25T09:50:43;6.53;;;1.80;;
29452;SDS011;16424;50.956;5.320;2023-04-25T09:53:09;5.75;;;1.67;;
29452;SDS011;16424;50.956;5.320;2023-04-25T09:55:35;9.00;;;2.30;;
29452;SDS011;16424;50.956;5.320;2023-04-25T09:58:03;13.88;;;1.67;;
29452;SDS011;16424;50.956;5.320;2023-04-25T10:00:32;10.23;;;1.33;;
29452;SDS011;16424;50.956;5.320;2023-04-25T10:03:00;4.68;;;1.48;;
29452;SDS011;16424;50.956;5.320;2023-04-25T10:05:30;3.05;;;1.35;;
29452;SDS011;16424;50.956;5.320;2023-04-25T10:08:02;8.15;;;1.58;;
29452;SDS011;16424;50.956;5.320;2023-04-25T10:10:31;4.72;;;1.45;;
29452;SDS011;16424;50.956;5.320;2023-04-25T10:13:02;3.78;;;1.30;;
29452;SDS011;16424;50.956;5.320;2023-04-25T10:15:29;9.90;;;2.17;;
29452;SDS011;16424;50.956;5.320;2023-04-25T10:17:55;11.30;;;1.80;;
29452;SDS011;16424;50.956;5.320;2023-04-25T10:20:22;7.18;;;2.25;;
29452;SDS011;16424;50.956;5.320;2023-04-25T10:22:48;4.70;;;1.40;;
29452;SDS011;16424;50.956;5.320;2023-04-25T10:25:19;5.10;;;1.50;;
29452;SDS011;16424;50.956;5.320;2023-04-25T10:27:45;8.40;;;1.67;;
29452;SDS011;16424;50.956;5.320;2023-04-25T10:30:13;8.10;;;1.65;;
29452;SDS011;16424;50.956;5.320;2023-04-25T10:32:41;7.65;;;1.42;;
29452;SDS011;16424;50.956;5.320;2023-04-25T10:35:19;4.80;;;1.70;;
29452;SDS011;16424;50.956;5.320;2023-04-25T10:38:05;4.20;;;1.38;;
29452;SDS011;16424;50.956;5.320;2023-04-25T10:40:35;5.55;;;1.13;;
29452;SDS011;16424;50.956;5.320;2023-04-25T10:48:59;11.40;;;1.70;;
29452;SDS011;16424;50.956;5.320;2023-04-25T10:51:27;6.50;;;1.20;;
29452;SDS011;16424;50.956;5.320;2023-04-25T10:56:25;4.60;;;0.80;;
29452;SDS011;16424;50.956;5.320;2023-04-25T10:58:52;5.68;;;1.08;;
29452;SDS011;16424;50.956;5.320;2023-04-25T11:01:42;3.22;;;0.98;;
29452;SDS011;16424;50.956;5.320;2023-04-25T11:04:30;3.80;;;1.10;;
29452;SDS011;16424;50.956;5.320;2023-04-25T11:09:27;4.53;;;1.10;;
29452;SDS011;16424;50.956;5.320;2023-04-25T11:11:54;8.65;;;1.17;;
29452;SDS011;16424;50.956;5.320;2023-04-25T11:14:20;3.55;;;1.05;;
29452;SDS011;16424;50.956;5.320;2023-04-25T11:16:46;3.13;;;1.00;;
29452;SDS011;16424;50.956;5.320;2023-04-25T11:19:12;3.17;;;0.90;;
29452;SDS011;16424;50.956;5.320;2023-04-25T11:21:38;6.18;;;0.98;;
29452;SDS011;16424;50.956;5.320;2023-04-25T11:24:04;4.03;;;1.52;;
29452;SDS011;16424;50.956;5.320;2023-04-25T11:26:29;4.97;;;1.20;;
29452;SDS011;16424;50.956;5.320;2023-04-25T11:28:58;7.45;;;1.23;;
29452;SDS011;16424;50.956;5.320;2023-04-25T11:31:28;6.80;;;1.25;;
29452;SDS011;16424;50.956;5.320;2023-04-25T11:33:57;9.10;;;0.93;;
29452;SDS011;16424;50.956;5.320;2023-04-25T11:36:23;4.07;;;1.17;;
29452;SDS011;16424;50.956;5.320;2023-04-25T11:38:50;4.22;;;0.95;;
29452;SDS011;16424;50.956;5.320;2023-04-25T11:41:17;4.30;;;1.00;;
29452;SDS011;16424;50.956;5.320;2023-04-25T11:43:43;5.93;;;2.00;;
29452;SDS011;16424;50.956;5.320;2023-04-25T11:46:09;3.53;;;1.40;;
29452;SDS011;16424;50.956;5.320;2023-04-25T11:48:36;3.25;;;1.02;;
29452;SDS011;16424;50.956;5.320;2023-04-25T11:51:06;5.63;;;1.50;;
29452;SDS011;16424;50.956;5.320;2023-04-25T11:53:31;5.13;;;1.20;;
29452;SDS011;16424;50.956;5.320;2023-04-25T11:55:57;5.60;;;1.10;;
29452;SDS011;16424;50.956;5.320;2023-04-25T11:58:23;2.80;;;1.63;;
29452;SDS011;16424;50.956;5.320;2023-04-25T12:00:50;5.22;;;1.40;;
29452;SDS011;16424;50.956;5.320;2023-04-25T12:03:16;2.95;;;0.95;;
29452;SDS011;16424;50.956;5.320;2023-04-25T12:05:42;3.63;;;1.02;;
29452;SDS011;16424;50.956;5.320;2023-04-25T12:08:11;2.58;;;0.80;;
29452;SDS011;16424;50.956;5.320;2023-04-25T12:10:37;2.75;;;0.82;;
29452;SDS011;16424;50.956;5.320;2023-04-25T12:13:21;5.00;;;1.27;;
29452;SDS011;16424;50.956;5.320;2023-04-25T12:15:52;6.47;;;1.23;;
29452;SDS011;16424;50.956;5.320;2023-04-25T12:18:20;5.43;;;1.27;;
29452;SDS011;16424;50.956;5.320;2023-04-25T12:20:47;3.60;;;1.30;;
29452;SDS011;16424;50.956;5.320;2023-04-25T12:23:13;10.98;;;2.28;;
29452;SDS011;16424;50.956;5.320;2023-04-25T12:28:18;3.15;;;1.17;;
29452;SDS011;16424;50.956;5.320;2023-04-25T12:30:54;3.40;;;1.23;;
29452;SDS011;16424;50.956;5.320;2023-04-25T12:33:31;3.92;;;1.38;;
29452;SDS011;16424;50.956;5.320;2023-04-25T12:36:01;5.60;;;1.67;;
29452;SDS011;16424;50.956;5.320;2023-04-25T12:38:39;3.80;;;2.17;;
29452;SDS011;16424;50.956;5.320;2023-04-25T12:41:06;3.25;;;1.25;;
29452;SDS011;16424;50.956;5.320;2023-04-25T12:43:33;1.73;;;1.20;;
29452;SDS011;16424;50.956;5.320;2023-04-25T12:45:58;2.58;;;1.30;;
29452;SDS011;16424;50.956;5.320;2023-04-25T12:48:24;7.20;;;1.60;;
29452;SDS011;16424;50.956;5.320;2023-04-25T12:50:50;4.00;;;1.45;;
29452;SDS011;16424;50.956;5.320;2023-04-25T12:53:20;5.53;;;1.10;;
29452;SDS011;16424;50.956;5.320;2023-04-25T12:55:47;5.55;;;1.30;;
29452;SDS011;16424;50.956;5.320;2023-04-25T12:58:13;4.38;;;1.27;;
29452;SDS011;16424;50.956;5.320;2023-04-25T13:00:40;5.88;;;1.65;;
29452;SDS011;16424;50.956;5.320;2023-04-25T13:03:05;6.47;;;1.20;;
29452;SDS011;16424;50.956;5.320;2023-04-25T13:05:31;2.85;;;1.02;;
29452;SDS011;16424;50.956;5.320;2023-04-25T13:07:57;4.45;;;1.38;;
29452;SDS011;16424;50.956;5.320;2023-04-25T13:10:22;6.22;;;1.70;;
29452;SDS011;16424;50.956;5.320;2023-04-25T13:12:48;7.60;;;1.25;;
29452;SDS011;16424;50.956;5.320;2023-04-25T13:15:14;7.88;;;1.85;;
29452;SDS011;16424;50.956;5.320;2023-04-25T13:17:41;8.73;;;1.40;;
29452;SDS011;16424;50.956;5.320;2023-04-25T13:20:07;5.25;;;1.25;;
29452;SDS011;16424;50.956;5.320;2023-04-25T13:22:35;8.57;;;2.00;;
29452;SDS011;16424;50.956;5.320;2023-04-25T13:25:04;2.75;;;1.35;;
29452;SDS011;16424;50.956;5.320;2023-04-25T13:27:31;4.95;;;1.40;;
29452;SDS011;16424;50.956;5.320;2023-04-25T13:29:58;6.90;;;1.88;;
29452;SDS011;16424;50.956;5.320;2023-04-25T13:32:25;5.10;;;1.98;;
29452;SDS011;16424;50.956;5.320;2023-04-25T13:34:51;6.20;;;1.25;;
29452;SDS011;16424;50.956;5.320;2023-04-25T13:37:17;7.78;;;1.70;;
29452;SDS011;16424;50.956;5.320;2023-04-25T13:39:43;8.75;;;2.40;;
29452;SDS011;16424;50.956;5.320;2023-04-25T13:42:09;5.22;;;1.65;;
29452;SDS011;16424;50.956;5.320;2023-04-25T13:44:34;4.20;;;1.58;;
29452;SDS011;16424;50.956;5.320;2023-04-25T13:47:00;4.82;;;1.75;;
29452;SDS011;16424;50.956;5.320;2023-04-25T13:49:26;6.22;;;2.10;;
29452;SDS011;16424;50.956;5.320;2023-04-25T13:51:51;7.88;;;1.20;;
29452;SDS011;16424;50.956;5.320;2023-04-25T13:54:17;6.35;;;1.40;;
29452;SDS011;16424;50.956;5.320;2023-04-25T13:56:43;3.25;;;1.17;;
29452;SDS011;16424;50.956;5.320;2023-04-25T13:59:08;3.00;;;1.77;;
29452;SDS011;16424;50.956;5.320;2023-04-25T14:01:35;5.65;;;0.95;;
29452;SDS011;16424;50.956;5.320;2023-04-25T14:04:01;5.90;;;1.73;;
29452;SDS011;16424;50.956;5.320;2023-04-25T14:06:28;5.85;;;1.65;;
29452;SDS011;16424;50.956;5.320;2023-04-25T14:08:54;2.28;;;0.70;;
29452;SDS011;16424;50.956;5.320;2023-04-25T14:11:21;2.22;;;0.77;;
29452;SDS011;16424;50.956;5.320;2023-04-25T14:13:47;5.20;;;1.77;;
29452;SDS011;16424;50.956;5.320;2023-04-25T14:16:15;6.50;;;1.30;;
29452;SDS011;16424;50.956;5.320;2023-04-25T14:18:41;6.35;;;2.10;;
29452;SDS011;16424;50.956;5.320;2023-04-25T14:21:07;5.57;;;1.55;;
29452;SDS011;16424;50.956;5.320;2023-04-25T14:23:33;2.47;;;1.27;;
29452;SDS011;16424;50.956;5.320;2023-04-25T14:25:58;4.85;;;1.20;;
29452;SDS011;16424;50.956;5.320;2023-04-25T14:28:24;2.08;;;1.10;;
29452;SDS011;16424;50.956;5.320;2023-04-25T14:30:49;4.32;;;1.05;;
29452;SDS011;16424;50.956;5.320;2023-04-25T14:33:15;8.43;;;1.48;;
29452;SDS011;16424;50.956;5.320;2023-04-25T14:35:41;3.45;;;0.98;;
29452;SDS011;16424;50.956;5.320;2023-04-25T14:38:06;2.60;;;1.20;;
29452;SDS011;16424;50.956;5.320;2023-04-25T14:40:32;5.00;;;1.08;;
29452;SDS011;16424;50.956;5.320;2023-04-25T14:42:58;2.38;;;1.45;;
29452;SDS011;16424;50.956;5.320;2023-04-25T14:45:24;4.40;;;1.25;;
29452;SDS011;16424;50.956;5.320;2023-04-25T14:47:49;4.07;;;1.02;;
29452;SDS011;16424;50.956;5.320;2023-04-25T14:50:15;8.65;;;1.88;;